createdAt,value
2022-08-05T00:00:26.004Z,6.95
2022-08-05T00:06:32.794Z,11.10
2022-08-05T00:12:34.926Z,8.35
2022-08-05T00:18:57.048Z,11.05
2022-08-05T00:24:59.010Z,16.55
2022-08-05T00:31:04.278Z,12.05
2022-08-05T00:37:09.928Z,11.95
2022-08-05T00:43:15.347Z,17.15
2022-08-05T00:49:20.453Z,14.10
2022-08-05T00:55:23.217Z,16.15
2022-08-05T01:01:48.556Z,17.45
2022-08-05T01:08:40.068Z,15.55
2022-08-05T01:14:28.480Z,15.38
2022-08-05T01:20:40.727Z,24.23
2022-08-05T01:27:19.439Z,23.58
2022-08-05T01:33:35.401Z,20.05
2022-08-05T01:39:47.575Z,21.55
2022-08-05T01:45:56.303Z,23.20
2022-08-05T01:52:02.347Z,26.75
2022-08-05T01:58:40.933Z,28.08
2022-08-05T02:04:44.055Z,25.80
2022-08-05T02:10:56.178Z,28.08
2022-08-05T02:17:16.732Z,24.65
2022-08-05T02:23:36.141Z,24.88
2022-08-05T02:29:58.207Z,26.70
2022-08-05T02:36:04.585Z,19.95
2022-08-05T02:42:08.544Z,29.05
2022-08-05T02:48:12.457Z,27.98
2022-08-05T03:00:37.841Z,32.60
2022-08-05T03:06:54.482Z,25.45
2022-08-05T03:19:06.497Z,30.65
2022-08-05T03:25:32.612Z,31.65
2022-08-05T03:31:57.231Z,21.15
2022-08-05T03:38:02.587Z,23.77
2022-08-05T03:44:11.258Z,26.92
2022-08-05T03:50:13.539Z,30.33
2022-08-05T03:56:41.480Z,26.20
2022-08-05T04:02:57.788Z,30.58
2022-08-05T04:09:01.797Z,27.13
2022-08-05T04:15:03.936Z,24.50
2022-08-05T04:21:07.023Z,25.85
2022-08-05T04:27:13.851Z,27.08
2022-08-05T04:33:17.358Z,28.08
2022-08-05T04:39:40.118Z,24.98
2022-08-05T04:45:48.807Z,22.85
2022-08-05T04:51:50.886Z,19.10
2022-08-05T04:58:02.389Z,26.98
2022-08-05T05:04:04.683Z,20.90
2022-08-05T05:10:06.734Z,16.38
2022-08-05T05:16:08.567Z,17.83
2022-08-05T05:22:23.509Z,16.50
2022-08-05T05:28:27.497Z,18.70
2022-08-05T05:34:31.393Z,16.90
2022-08-05T05:40:33.614Z,19.08
2022-08-05T05:46:36.178Z,15.43
2022-08-05T05:52:42.421Z,14.90
2022-08-05T05:58:48.345Z,16.23
2022-08-05T06:04:52.101Z,18.98
2022-08-05T06:10:53.937Z,13.82
2022-08-05T06:16:55.796Z,14.07
2022-08-05T06:22:59.086Z,16.10
2022-08-05T06:29:06.056Z,14.65
2022-08-05T06:36:09.261Z,16.58
2022-08-05T06:41:44.567Z,10.55
2022-08-05T06:48:37.044Z,10.90
2022-08-05T06:54:08.093Z,12.05
2022-08-05T07:00:14.084Z,11.23
2022-08-05T07:06:24.090Z,12.43
2022-08-05T07:12:49.366Z,16.10
2022-08-05T07:18:51.110Z,14.85
2022-08-05T07:24:54.380Z,13.38
2022-08-05T07:30:56.270Z,15.43
2022-08-05T07:36:58.012Z,17.10
2022-08-05T07:42:59.832Z,17.20
2022-08-05T07:49:07.815Z,19.63
2022-08-05T07:55:22.267Z,14.63
2022-08-05T08:01:32.561Z,15.18
2022-08-05T08:07:39.415Z,12.25
2022-08-05T08:14:00.423Z,11.77
2022-08-05T08:20:44.605Z,11.85
2022-08-05T08:32:34.598Z,13.02
2022-08-05T08:38:41.579Z,12.70
2022-08-05T08:45:16.822Z,14.02
2022-08-05T08:52:02.110Z,15.30
2022-08-05T08:57:42.013Z,12.80
2022-08-05T09:03:52.889Z,17.75
2022-08-05T09:09:57.549Z,19.65
2022-08-05T09:16:01.147Z,16.15
2022-08-05T09:22:22.942Z,14.60
2022-08-05T09:28:32.031Z,17.15
2022-08-05T09:34:48.706Z,19.20
2022-08-05T09:40:52.302Z,24.67
2022-08-05T09:47:10.445Z,32.33
2022-08-05T09:53:25.706Z,14.55
2022-08-05T09:59:37.259Z,39.08
2022-08-05T10:05:41.730Z,12.05
2022-08-05T10:11:44.495Z,12.30
2022-08-05T10:18:16.847Z,14.98
2022-08-05T10:24:20.664Z,16.58
2022-08-05T10:32:46.671Z,15.27
2022-08-05T10:36:51.184Z,12.10
2022-08-05T10:42:56.331Z,10.75
2022-08-05T10:49:01.527Z,7.72
2022-08-05T10:55:07.930Z,6.90
2022-08-05T11:01:12.059Z,6.00
2022-08-05T11:07:18.656Z,6.00
2022-08-05T11:13:40.838Z,5.68
2022-08-05T11:20:11.182Z,7.05
2022-08-05T11:26:29.040Z,6.82
2022-08-05T11:32:35.088Z,6.25
2022-08-05T11:38:45.264Z,5.22
2022-08-05T11:44:53.961Z,8.80
2022-08-05T11:50:56.144Z,6.47
2022-08-05T11:56:59.931Z,9.15
2022-08-05T12:03:29.481Z,7.35
2022-08-05T12:09:52.697Z,4.65
2022-08-05T12:15:55.825Z,7.30
2022-08-05T12:21:57.816Z,4.78
2022-08-05T12:28:01.103Z,10.85
2022-08-05T12:34:06.975Z,4.82
2022-08-05T12:40:26.356Z,5.63
2022-08-05T12:46:31.207Z,4.97
2022-08-05T12:52:42.233Z,7.45
2022-08-05T12:58:53.593Z,8.10
2022-08-05T13:04:57.545Z,6.50
2022-08-05T13:11:01.667Z,6.40
2022-08-05T13:17:09.235Z,9.88
2022-08-05T13:23:11.845Z,8.15
2022-08-05T13:29:18.977Z,6.45
2022-08-05T13:35:31.454Z,7.35
2022-08-05T13:41:44.065Z,4.50
2022-08-05T13:48:08.558Z,6.80
2022-08-05T13:54:11.812Z,3.22
2022-08-05T14:00:14.930Z,5.07
2022-08-05T14:06:26.089Z,3.75
2022-08-05T14:12:32.663Z,4.65
2022-08-05T14:18:34.682Z,4.88
2022-08-05T14:24:40.154Z,3.83
2022-08-05T14:30:46.425Z,4.93
2022-08-05T14:36:48.613Z,5.57
2022-08-05T14:42:50.524Z,3.58
2022-08-05T14:48:53.852Z,3.67
2022-08-05T14:54:56.427Z,3.60
2022-08-05T15:01:00.320Z,4.15
2022-08-05T15:07:03.424Z,4.10
2022-08-05T15:13:05.784Z,3.15
2022-08-05T15:19:14.616Z,4.13
2022-08-05T15:25:41.164Z,2.97
2022-08-05T15:31:52.883Z,6.10
2022-08-05T15:38:33.779Z,5.32
2022-08-05T15:44:17.859Z,3.15
2022-08-05T15:50:19.712Z,3.40
2022-08-05T15:56:26.903Z,3.40
2022-08-05T16:02:32.980Z,3.10
2022-08-05T16:08:35.163Z,2.47
2022-08-05T16:14:36.979Z,2.00
2022-08-05T16:20:38.758Z,3.80
2022-08-05T16:26:58.280Z,2.28
2022-08-05T16:33:00.988Z,1.23
2022-08-05T16:39:02.992Z,2.20
2022-08-05T16:51:30.779Z,1.83
2022-08-05T16:57:53.193Z,2.15
2022-08-05T17:03:54.513Z,2.97
2022-08-05T17:09:57.364Z,1.75
2022-08-05T17:16:19.831Z,6.22
2022-08-05T17:22:25.486Z,1.75
2022-08-05T17:28:28.879Z,5.28
2022-08-05T17:34:32.192Z,4.20
2022-08-05T17:40:36.651Z,1.38
2022-08-05T17:46:41.804Z,2.05
2022-08-05T17:52:52.524Z,1.58
2022-08-05T17:58:55.492Z,2.47
2022-08-05T18:04:57.203Z,4.07
2022-08-05T18:11:00.876Z,0.98
2022-08-05T18:17:08.341Z,3.65
2022-08-05T18:23:31.685Z,3.35
2022-08-05T18:29:53.575Z,2.10
2022-08-05T18:36:03.571Z,1.83
2022-08-05T18:42:11.253Z,6.13
2022-08-05T18:48:30.546Z,2.50
2022-08-05T18:54:34.672Z,3.35
2022-08-05T19:00:36.406Z,2.25
2022-08-05T19:06:44.836Z,5.95
2022-08-05T19:12:48.320Z,3.63
2022-08-05T19:18:49.993Z,4.72
2022-08-05T19:24:55.850Z,4.73
2022-08-05T19:30:58.387Z,3.20
2022-08-05T19:37:00.771Z,1.88
2022-08-05T19:43:05.194Z,1.38
2022-08-05T19:49:08.030Z,1.85
2022-08-05T19:56:14.992Z,2.35
2022-08-05T20:01:36.338Z,2.33
2022-08-05T20:07:46.618Z,4.20
2022-08-05T20:13:58.883Z,4.03
2022-08-05T20:20:13.554Z,1.48
2022-08-05T20:26:17.355Z,1.80
2022-08-05T20:38:26.839Z,2.42
2022-08-05T20:44:30.863Z,5.03
2022-08-05T20:50:32.977Z,3.90
2022-08-05T20:56:41.936Z,3.13
2022-08-05T21:02:51.841Z,1.88
2022-08-05T21:08:53.951Z,4.05
2022-08-05T21:14:55.866Z,2.42
2022-08-05T21:21:00.463Z,4.13
2022-08-05T21:27:02.427Z,2.72
2022-08-05T21:33:07.287Z,2.75
2022-08-05T21:39:14.326Z,2.75
2022-08-05T21:45:24.915Z,3.28
2022-08-05T21:52:22.711Z,3.63
2022-08-05T21:58:01.871Z,1.80
2022-08-05T22:10:16.853Z,1.83
2022-08-05T22:16:39.599Z,3.27
2022-08-05T22:22:59.180Z,1.95
2022-08-05T22:29:00.937Z,0.77
2022-08-05T22:35:02.701Z,3.33
2022-08-05T22:41:09.530Z,2.38
2022-08-05T22:47:11.548Z,4.53
2022-08-05T22:53:15.954Z,2.22
2022-08-05T22:59:45.780Z,3.58
2022-08-05T23:05:40.301Z,2.28
2022-08-05T23:11:42.034Z,1.55
2022-08-05T23:18:01.232Z,1.55
2022-08-05T23:24:11.293Z,4.57
2022-08-05T23:30:13.599Z,1.67
2022-08-05T23:36:15.539Z,3.33
2022-08-05T23:42:23.469Z,2.60
2022-08-05T23:48:31.266Z,2.25
2022-08-05T23:54:38.461Z,4.97
